»·PEaware :: WAT380 KLAS-KSNA

WAT380 :: KLAS-KSNA

FLIGHT INFORMATION

Flight Status: Arrived
Operator:
Walker Air Transport
More flights by this operator :: More flights under this callsign
Pilot: Spencer M. (27733)
Aircraft: ECLIPSE 500
(EA50)
More flights by this aircraft type
Origin: KLAS McCarran Intl
United States
Destination: KSNA John Wayne-Orange Co
United States
More flights between these airports :: More routes between these airports
Route: BOACH8 HEC KAYOH7
File this flight plan on PilotEdge
Remarks:
Altitude:
(Current/Filed)
14,000ft
Speed:
(Current/Filed)
260kts
Departed: 13-Oct-20 01:41 PM
Arrived: 13-Oct-20 02:35 PM
Distance/Time
Traveled:
197nm/0:54
Distance/Time
To Go:
Arrived

Flight Plot

Page will automatically refresh every two minutes.

Flight plan parsing failed; only flown route is shown


Map Options




Map Legend


Flown Route
Filed Route
Departure Airport
Arrival Airport
Navaid (VOR, NDB)
Fix

Horizontal Profiles

Position Reports

Time Latitude Longitude Heading Altitude Ground
Speed
13-Oct-20 13:14 36.082061 -115.170506 0 2184ft 0kts
13-Oct-20 13:15 36.082061 -115.170506 0 2184ft 0kts
13-Oct-20 13:16 36.082061 -115.170506 0 2184ft 0kts
13-Oct-20 13:17 36.082061 -115.170506 0 2184ft 0kts
13-Oct-20 13:18 36.082061 -115.170506 0 2184ft 0kts
13-Oct-20 13:19 36.082061 -115.170506 0 2184ft 0kts
13-Oct-20 13:20 36.082061 -115.170506 0 2184ft 0kts
13-Oct-20 13:21 36.082061 -115.170506 0 2184ft 0kts
13-Oct-20 13:29 36.082061 -115.170506 0 2184ft 0kts
13-Oct-20 13:31 36.082061 -115.170506 0 2184ft 0kts
13-Oct-20 13:31 36.082061 -115.170506 0 2184ft 0kts
13-Oct-20 13:33 36.081864 -115.169569 146 2184ft 7kts
13-Oct-20 13:33 36.083911 -115.167855 24 2184ft 16kts
13-Oct-20 13:34 36.088685 -115.165126 25 2184ft 20kts
13-Oct-20 13:35 36.093726 -115.162234 25 2184ft 18kts
13-Oct-20 13:36 36.097540 -115.160055 25 2184ft 14kts
13-Oct-20 13:37 36.099846 -115.157469 96 2184ft 0kts
13-Oct-20 13:38 36.099846 -115.157469 96 2184ft 0kts
13-Oct-20 13:39 36.099846 -115.157469 96 2184ft 0kts
13-Oct-20 13:40 36.097364 -115.157767 204 2184ft 51kts
13-Oct-20 13:41 36.068451 -115.174329 205 2911ft 147kts
13-Oct-20 13:42 36.025779 -115.198695 205 4454ft 192kts
13-Oct-20 13:43 35.992814 -115.253437 242 6020ft 214kts
13-Oct-20 13:44 35.953472 -115.304414 186 7735ft 227kts
13-Oct-20 13:45 35.890663 -115.311329 187 9436ft 227kts
13-Oct-20 13:46 35.827203 -115.311615 177 11143ft 231kts
13-Oct-20 13:47 35.763533 -115.304370 177 12842ft 229kts
13-Oct-20 13:48 35.699960 -115.297159 177 14051ft 245kts
13-Oct-20 13:49 35.643630 -115.340735 228 14056ft 266kts
13-Oct-20 13:50 35.592565 -115.409910 228 14054ft 279kts
13-Oct-20 13:51 35.539475 -115.481309 228 14017ft 286kts
13-Oct-20 13:52 35.485448 -115.553729 228 14017ft 289kts
13-Oct-20 13:53 35.430971 -115.626574 228 14016ft 290kts
13-Oct-20 13:54 35.375871 -115.700088 227 14009ft 295kts
13-Oct-20 13:55 35.319876 -115.774636 227 13987ft 298kts
13-Oct-20 13:56 35.263683 -115.849279 227 13975ft 299kts
13-Oct-20 13:57 35.207184 -115.924164 227 13964ft 300kts
13-Oct-20 13:58 35.150641 -115.998944 227 13962ft 299kts
13-Oct-20 13:59 35.094145 -116.073493 227 14014ft 298kts
13-Oct-20 14:00 35.037770 -116.147726 227 14017ft 299kts
13-Oct-20 14:01 34.981270 -116.221963 227 13998ft 300kts
13-Oct-20 14:02 34.924393 -116.296530 227 13997ft 301kts
13-Oct-20 14:03 34.867180 -116.371366 227 13988ft 302kts
13-Oct-20 14:04 34.809946 -116.446065 227 13981ft 303kts
13-Oct-20 14:05 34.751081 -116.519482 226 13980ft 303kts
13-Oct-20 14:06 34.691881 -116.592335 226 13982ft 303kts
13-Oct-20 14:07 34.633446 -116.664116 225 13998ft 288kts
13-Oct-20 14:08 34.578830 -116.731044 225 13931ft 272kts
13-Oct-20 14:09 34.526315 -116.795270 225 13706ft 264kts
13-Oct-20 14:10 34.475026 -116.857099 225 13505ft 258kts
13-Oct-20 14:11 34.424484 -116.918422 225 13307ft 259kts
13-Oct-20 14:12 34.373357 -116.980758 226 13099ft 264kts
13-Oct-20 14:13 34.321387 -117.044176 226 13035ft 265kts
13-Oct-20 14:14 34.269371 -117.107312 221 13008ft 265kts
13-Oct-20 14:15 34.196634 -117.123490 188 12450ft 266kts
13-Oct-20 14:16 34.124610 -117.133968 189 11745ft 258kts
13-Oct-20 14:17 34.054224 -117.146636 210 10999ft 253kts
13-Oct-20 14:18 34.009749 -117.210130 230 10105ft 245kts
13-Oct-20 14:19 33.964842 -117.268820 227 9197ft 232kts
13-Oct-20 14:20 33.921720 -117.322020 227 8286ft 213kts
13-Oct-20 14:21 33.883340 -117.369400 227 8005ft 187kts
13-Oct-20 14:22 33.846508 -117.414162 227 8009ft 188kts
13-Oct-20 14:23 33.809703 -117.458489 227 8010ft 186kts
13-Oct-20 14:24 33.777968 -117.505072 267 8015ft 179kts
13-Oct-20 14:25 33.778406 -117.564046 271 7996ft 172kts
13-Oct-20 14:26 33.779919 -117.622521 271 7126ft 170kts
13-Oct-20 14:27 33.781446 -117.677737 270 6120ft 161kts
13-Oct-20 14:28 33.782927 -117.730895 270 5117ft 156kts
13-Oct-20 14:29 33.783394 -117.782475 265 4238ft 150kts
13-Oct-20 14:30 33.761619 -117.818805 203 3165ft 143kts
13-Oct-20 14:31 33.728520 -117.835321 209 1685ft 120kts
13-Oct-20 14:32 33.701009 -117.852840 209 496ft 98kts
13-Oct-20 14:33 33.678063 -117.867331 209 60ft 82kts
13-Oct-20 14:34 33.669524 -117.872011 149 59ft 0kts
13-Oct-20 14:35 33.669599 -117.870051 38 59ft 0kts
13-Oct-20 14:36 33.669599 -117.870051 38 59ft 0kts
13-Oct-20 14:37 33.669599 -117.870051 38 59ft 0kts
13-Oct-20 14:38 33.669599 -117.870051 38 59ft 0kts
13-Oct-20 14:39 33.669599 -117.870051 38 59ft 0kts

Navigation Log

Ident Type
Flight plan parsing failed, navigation log unavailable